createdAt,value
2018-05-11T00:02:14.412Z,97372
2018-05-11T00:04:43.350Z,97372
2018-05-11T00:07:11.527Z,97373
2018-05-11T00:09:39.728Z,97376
2018-05-11T00:12:07.905Z,97369
2018-05-11T00:14:36.090Z,97372
2018-05-11T00:17:04.258Z,97372
2018-05-11T00:19:32.432Z,97376
2018-05-11T00:22:00.605Z,97372
2018-05-11T00:24:28.781Z,97380
2018-05-11T00:26:56.949Z,97376
2018-05-11T00:29:25.125Z,97375
2018-05-11T00:31:53.627Z,97372
2018-05-11T00:34:21.812Z,97374
2018-05-11T00:36:50.746Z,97376
2018-05-11T00:39:18.936Z,97379
2018-05-11T00:41:47.110Z,97387
2018-05-11T00:44:15.285Z,97392
2018-05-11T00:46:43.451Z,97390
2018-05-11T00:49:11.624Z,97398
2018-05-11T00:51:39.793Z,97393
2018-05-11T00:54:07.991Z,97394
2018-05-11T00:56:36.164Z,97394
2018-05-11T00:59:04.353Z,97389
2018-05-11T01:01:32.516Z,97392
2018-05-11T01:04:00.693Z,97394
2018-05-11T01:06:28.876Z,97396
2018-05-11T01:08:57.055Z,97403
2018-05-11T01:11:25.262Z,97398
2018-05-11T01:13:53.433Z,97400
2018-05-11T01:16:22.369Z,97396
2018-05-11T01:18:50.531Z,97400
2018-05-11T01:21:18.713Z,97398
2018-05-11T01:23:46.878Z,97398
2018-05-11T01:26:15.053Z,97399
2018-05-11T01:28:43.252Z,97408
2018-05-11T01:31:11.418Z,97409
2018-05-11T01:33:39.608Z,97410
2018-05-11T01:36:07.792Z,97415
2018-05-11T01:38:35.965Z,97402
2018-05-11T01:41:04.131Z,97411
2018-05-11T01:43:32.313Z,97408
2018-05-11T01:46:00.492Z,97411
2018-05-11T01:48:28.680Z,97415
2018-05-11T01:50:57.618Z,97418
2018-05-11T01:53:25.777Z,97425
2018-05-11T01:55:54.323Z,97429
2018-05-11T01:58:22.500Z,97427
2018-05-11T02:00:51.441Z,97436
2018-05-11T02:03:19.620Z,97428
2018-05-11T02:05:47.788Z,97429
2018-05-11T02:08:15.986Z,97427
2018-05-11T02:10:44.157Z,97427
2018-05-11T02:13:12.337Z,97432
2018-05-11T02:15:40.533Z,97435
2018-05-11T02:18:08.708Z,97435
2018-05-11T02:20:36.889Z,97436
2018-05-11T02:23:05.074Z,97442
2018-05-11T02:25:34.009Z,97444
2018-05-11T02:28:02.181Z,97444
2018-05-11T02:30:30.352Z,97446
2018-05-11T02:32:58.527Z,97449
2018-05-11T02:35:26.712Z,97450
2018-05-11T02:37:54.881Z,97451
2018-05-11T02:40:23.058Z,97454
2018-05-11T02:42:51.257Z,97453
2018-05-11T02:45:19.432Z,97459
2018-05-11T02:47:47.601Z,97464
2018-05-11T02:50:15.770Z,97463
2018-05-11T02:52:43.959Z,97467
2018-05-11T02:55:12.121Z,97463
2018-05-11T02:57:40.289Z,97467
2018-05-11T03:00:08.468Z,97467
2018-05-11T03:02:36.654Z,97474
2018-05-11T03:05:04.831Z,97477
2018-05-11T03:07:33.021Z,97485
2018-05-11T03:10:01.190Z,97490
2018-05-11T03:12:29.398Z,97490
2018-05-11T03:14:57.580Z,97491
2018-05-11T03:17:25.765Z,97492
2018-05-11T03:19:53.965Z,97502
2018-05-11T03:22:22.136Z,97503
2018-05-11T03:24:50.305Z,97501
2018-05-11T03:27:18.486Z,97503
2018-05-11T03:29:46.683Z,97503
2018-05-11T03:32:14.886Z,97505
2018-05-11T03:34:43.842Z,97507
2018-05-11T03:37:12.027Z,97510
2018-05-11T03:39:40.206Z,97511
2018-05-11T03:42:08.398Z,97512
2018-05-11T03:44:37.339Z,97519
2018-05-11T03:47:05.530Z,97523
2018-05-11T03:49:33.706Z,97529
2018-05-11T03:52:01.883Z,97532
2018-05-11T03:54:30.384Z,97530
2018-05-11T03:56:59.334Z,97532
2018-05-11T03:59:27.535Z,97539
2018-05-11T04:02:13.468Z,97538
2018-05-11T04:04:59.501Z,97541
2018-05-11T04:07:46.454Z,97544
2018-05-11T04:10:15.396Z,97542
2018-05-11T04:12:43.569Z,97544
2018-05-11T04:15:11.757Z,97543
2018-05-11T04:17:39.939Z,97553
2018-05-11T04:20:08.121Z,97552
2018-05-11T04:22:36.302Z,97557
2018-05-11T04:25:04.505Z,97562
2018-05-11T04:27:33.473Z,97566
2018-05-11T04:30:01.656Z,97561
2018-05-11T04:32:29.830Z,97566
2018-05-11T04:34:58.025Z,97574
2018-05-11T04:37:26.976Z,97573
2018-05-11T04:39:55.161Z,97578
2018-05-11T04:42:23.370Z,97583
2018-05-11T04:44:52.309Z,97584
2018-05-11T04:47:20.489Z,97583
2018-05-11T04:49:48.698Z,97588
2018-05-11T04:52:17.656Z,97587
2018-05-11T04:54:45.837Z,97592
2018-05-11T04:57:14.065Z,97593
2018-05-11T04:59:42.993Z,97593
2018-05-11T05:02:11.173Z,97593
2018-05-11T05:04:39.353Z,97592
2018-05-11T05:07:07.529Z,97594
2018-05-11T05:09:35.738Z,97595
2018-05-11T05:12:04.682Z,97599
2018-05-11T05:14:32.864Z,97601
2018-05-11T05:17:01.049Z,97604
2018-05-11T05:19:29.249Z,97605
2018-05-11T05:21:58.211Z,97608
2018-05-11T05:24:26.409Z,97605
2018-05-11T05:26:54.586Z,97609
2018-05-11T05:29:22.760Z,97614
2018-05-11T05:31:50.934Z,97606
2018-05-11T05:34:19.125Z,97612
2018-05-11T05:36:48.064Z,97605
2018-05-11T05:39:16.332Z,97611
2018-05-11T05:41:44.460Z,97610
2018-05-11T05:44:13.401Z,97615
2018-05-11T05:46:41.574Z,97618
2018-05-11T05:49:09.758Z,97617
2018-05-11T05:51:37.944Z,97616
2018-05-11T05:54:06.120Z,97618
2018-05-11T05:56:34.502Z,97622
2018-05-11T05:59:02.673Z,97629
2018-05-11T06:01:30.849Z,97629
2018-05-11T06:03:59.051Z,97632
2018-05-11T06:06:27.995Z,97629
2018-05-11T06:08:56.983Z,97633
2018-05-11T06:11:25.166Z,97632
2018-05-11T06:13:53.370Z,97638
2018-05-11T06:16:21.547Z,97640
2018-05-11T06:18:49.729Z,97633
2018-05-11T06:21:19.404Z,97640
2018-05-11T06:23:47.593Z,97639
2018-05-11T06:26:15.768Z,97644
2018-05-11T06:28:43.947Z,97643
2018-05-11T06:31:12.117Z,97644
2018-05-11T06:33:40.318Z,97647
2018-05-11T06:36:09.276Z,97653
2018-05-11T06:38:37.462Z,97647
2018-05-11T06:41:05.633Z,97651
2018-05-11T06:43:33.810Z,97647
2018-05-11T06:46:02.038Z,97649
2018-05-11T06:48:30.965Z,97648
2018-05-11T06:50:59.144Z,97651
2018-05-11T06:53:27.354Z,97655
2018-05-11T06:55:56.361Z,97655
2018-05-11T06:58:24.522Z,97656
2018-05-11T07:00:53.461Z,97654
2018-05-11T07:03:21.642Z,97655
2018-05-11T07:05:49.834Z,97649
2018-05-11T07:08:18.009Z,97645
2018-05-11T07:10:46.197Z,97647
2018-05-11T07:13:14.384Z,97653
2018-05-11T07:15:43.329Z,97656
2018-05-11T07:18:11.509Z,97656
2018-05-11T07:20:39.737Z,97664
2018-05-11T07:23:08.682Z,97655
2018-05-11T07:25:36.940Z,97661
2018-05-11T07:28:06.568Z,97657
2018-05-11T07:30:34.761Z,97652
2018-05-11T07:33:03.030Z,97655
2018-05-11T07:35:31.960Z,97653
2018-05-11T07:38:00.903Z,97650
2018-05-11T07:40:29.079Z,97656
2018-05-11T07:42:57.265Z,97652
2018-05-11T07:45:25.588Z,97658
2018-05-11T07:47:54.541Z,97661
2018-05-11T07:50:22.760Z,97663
2018-05-11T07:52:50.938Z,97660
2018-05-11T07:55:19.118Z,97660
2018-05-11T07:57:47.285Z,97664
2018-05-11T08:00:15.467Z,97664
2018-05-11T08:02:43.659Z,97668
2018-05-11T08:05:11.840Z,97664
2018-05-11T08:07:40.017Z,97665
2018-05-11T08:10:08.314Z,97665
2018-05-11T08:12:36.493Z,97668
2018-05-11T08:15:04.685Z,97671
2018-05-11T08:17:33.646Z,97665
2018-05-11T08:20:01.826Z,97669
2018-05-11T08:22:30.053Z,97670
2018-05-11T08:24:58.231Z,97674
2018-05-11T08:27:26.397Z,97673
2018-05-11T08:29:55.375Z,97678
2018-05-11T08:32:24.912Z,97678
2018-05-11T08:34:53.089Z,97677
2018-05-11T08:37:21.281Z,97676
2018-05-11T08:39:49.454Z,97675
2018-05-11T08:42:17.624Z,97680
2018-05-11T08:44:45.844Z,97673
2018-05-11T08:47:14.804Z,97682
2018-05-11T08:49:42.980Z,97678
2018-05-11T08:52:11.152Z,97678
2018-05-11T08:54:39.383Z,97674
2018-05-11T08:57:08.332Z,97675
2018-05-11T08:59:36.537Z,97673
2018-05-11T09:02:04.713Z,97672
2018-05-11T09:04:32.881Z,97670
2018-05-11T09:07:01.073Z,97672
2018-05-11T09:09:30.005Z,97666
2018-05-11T09:11:58.188Z,97665
2018-05-11T09:14:26.505Z,97665
2018-05-11T09:16:54.697Z,97666
2018-05-11T09:19:23.658Z,97669
2018-05-11T09:21:51.834Z,97674
2018-05-11T09:24:20.025Z,97673
2018-05-11T09:26:48.975Z,97674
2018-05-11T09:29:17.152Z,97676
2018-05-11T09:31:45.365Z,97676
2018-05-11T09:34:13.506Z,97675
2018-05-11T09:36:41.677Z,97671
2018-05-11T09:39:09.844Z,97668
2018-05-11T09:41:38.011Z,97665
2018-05-11T09:44:06.228Z,97666
2018-05-11T09:46:34.397Z,97663
2018-05-11T09:49:02.581Z,97665
2018-05-11T09:51:30.760Z,97668
2018-05-11T09:53:58.928Z,97668
2018-05-11T09:56:27.105Z,97669
2018-05-11T09:58:55.288Z,97670
2018-05-11T10:01:24.236Z,97670
2018-05-11T10:03:52.418Z,97672
2018-05-11T10:06:20.597Z,97675
2018-05-11T10:08:48.789Z,97671
2018-05-11T10:11:16.957Z,97673
2018-05-11T10:13:45.138Z,97673
2018-05-11T10:16:13.311Z,97675
2018-05-11T10:18:41.648Z,97680
2018-05-11T10:21:09.814Z,97679
2018-05-11T10:23:37.985Z,97678
2018-05-11T10:26:06.163Z,97676
2018-05-11T10:28:34.380Z,97678
2018-05-11T10:31:02.526Z,97680
2018-05-11T10:33:30.737Z,97682
2018-05-11T10:35:58.921Z,97683
2018-05-11T10:38:27.096Z,97683
2018-05-11T10:40:55.277Z,97678
2018-05-11T10:43:24.214Z,97673
2018-05-11T10:45:52.405Z,97681
2018-05-11T10:48:20.605Z,97680
2018-05-11T10:50:48.819Z,97685
2018-05-11T10:53:17.020Z,97688
2018-05-11T10:55:45.191Z,97680
2018-05-11T10:58:13.364Z,97676
2018-05-11T11:00:41.549Z,97677
2018-05-11T11:03:09.714Z,97680
2018-05-11T11:05:37.888Z,97683
2018-05-11T11:08:06.065Z,97683
2018-05-11T11:10:34.254Z,97680
2018-05-11T11:13:02.434Z,97682
2018-05-11T11:15:30.603Z,97680
2018-05-11T11:17:58.780Z,97676
2018-05-11T11:20:26.993Z,97677
2018-05-11T11:22:55.938Z,97673
2018-05-11T11:25:24.192Z,97666
2018-05-11T11:27:52.360Z,97666
2018-05-11T11:30:20.528Z,97665
2018-05-11T11:32:48.708Z,97658
2018-05-11T11:35:16.899Z,97658
2018-05-11T11:37:45.062Z,97661
2018-05-11T11:40:13.225Z,97655
2018-05-11T11:42:42.171Z,97652
2018-05-11T11:45:10.343Z,97646
2018-05-11T11:47:38.630Z,97646
2018-05-11T11:50:06.724Z,97645
2018-05-11T11:52:35.661Z,97641
2018-05-11T11:55:03.832Z,97639
2018-05-11T11:57:32.112Z,97645
2018-05-11T12:00:00.628Z,97636
2018-05-11T12:02:29.794Z,97636
2018-05-11T12:04:58.125Z,97631
2018-05-11T12:07:27.071Z,97624
2018-05-11T12:09:55.932Z,97621
2018-05-11T12:12:24.186Z,97625
2018-05-11T12:14:53.835Z,97626
2018-05-11T12:17:22.012Z,97626
2018-05-11T12:19:50.201Z,97622
2018-05-11T12:22:18.378Z,97619
2018-05-11T12:24:47.438Z,97615
2018-05-11T12:27:16.132Z,97616
2018-05-11T12:29:44.296Z,97610
2018-05-11T12:32:13.377Z,97608
2018-05-11T12:34:43.380Z,97608
2018-05-11T12:37:11.585Z,97600
2018-05-11T12:39:39.757Z,97601
2018-05-11T12:42:07.934Z,97606
2018-05-11T12:44:36.117Z,97610
2018-05-11T12:47:04.300Z,97604
2018-05-11T12:49:32.477Z,97597
2018-05-11T12:52:00.653Z,97593
2018-05-11T12:54:28.837Z,97589
2018-05-11T12:56:57.008Z,97584
2018-05-11T12:59:25.188Z,97582
2018-05-11T13:01:53.353Z,97582
2018-05-11T13:04:21.519Z,97576
2018-05-11T13:06:49.694Z,97574
2018-05-11T13:09:17.868Z,97575
2018-05-11T13:11:46.046Z,97570
2018-05-11T13:14:14.299Z,97568
2018-05-11T13:16:43.186Z,97567
2018-05-11T13:19:11.357Z,97556
2018-05-11T13:21:39.521Z,97563
2018-05-11T13:24:07.697Z,97562
2018-05-11T13:26:35.873Z,97560
2018-05-11T13:29:04.053Z,97560
2018-05-11T13:31:32.230Z,97562
2018-05-11T13:34:00.409Z,97553
2018-05-11T13:36:28.753Z,97554
2018-05-11T13:38:56.897Z,97547
2018-05-11T13:41:25.073Z,97538
2018-05-11T13:43:54.013Z,97541
2018-05-11T13:46:22.183Z,97537
2018-05-11T13:48:50.380Z,97538
2018-05-11T13:51:18.586Z,97532
2018-05-11T13:53:46.757Z,97524
2018-05-11T13:56:14.933Z,97521
2018-05-11T13:58:43.881Z,97516
2018-05-11T14:01:12.105Z,97509
2018-05-11T14:03:41.052Z,97509
2018-05-11T14:06:09.221Z,97508
2018-05-11T14:08:37.397Z,97508
2018-05-11T14:11:05.565Z,97510
2018-05-11T14:13:33.743Z,97508
2018-05-11T14:16:01.916Z,97510
2018-05-11T14:18:30.082Z,97502
2018-05-11T14:20:58.257Z,97503
2018-05-11T14:23:26.498Z,97505
2018-05-11T14:25:55.442Z,97505
2018-05-11T14:28:23.627Z,97502
2018-05-11T14:30:51.818Z,97508
2018-05-11T14:33:19.986Z,97503
2018-05-11T14:35:48.163Z,97507
2018-05-11T14:38:16.332Z,97500
2018-05-11T14:40:44.514Z,97497
2018-05-11T14:43:12.684Z,97504
2018-05-11T14:45:40.859Z,97498
2018-05-11T14:48:09.810Z,97497
2018-05-11T14:50:37.973Z,97498
2018-05-11T14:53:07.172Z,97506
2018-05-11T14:55:36.113Z,97511
2018-05-11T14:58:04.319Z,97501
2018-05-11T15:00:33.272Z,97499
2018-05-11T15:03:01.453Z,97498
2018-05-11T15:05:29.617Z,97500
2018-05-11T15:07:57.799Z,97500
2018-05-11T15:10:25.979Z,97496
2018-05-11T15:12:54.142Z,97499
2018-05-11T15:15:22.320Z,97499
2018-05-11T15:17:50.489Z,97500
2018-05-11T15:20:18.674Z,97501
2018-05-11T15:22:46.839Z,97494
2018-05-11T15:25:15.007Z,97497
2018-05-11T15:27:43.184Z,97494
2018-05-11T15:30:11.354Z,97490
2018-05-11T15:32:39.527Z,97486
2018-05-11T15:35:07.702Z,97491
2018-05-11T15:37:35.887Z,97487
2018-05-11T15:40:04.070Z,97483
2018-05-11T15:42:32.251Z,97489
2018-05-11T15:45:00.434Z,97486
2018-05-11T15:47:28.615Z,97486
2018-05-11T15:49:56.793Z,97484
2018-05-11T15:52:24.963Z,97487
2018-05-11T15:54:53.151Z,97484
2018-05-11T15:57:22.116Z,97483
2018-05-11T15:59:50.290Z,97481
2018-05-11T16:02:18.458Z,97487
2018-05-11T16:04:46.648Z,97492
2018-05-11T16:07:14.833Z,97490
2018-05-11T16:09:43.016Z,97487
2018-05-11T16:12:11.952Z,97485
2018-05-11T16:14:40.122Z,97486
2018-05-11T16:17:08.311Z,97483
2018-05-11T16:19:36.488Z,97491
2018-05-11T16:22:04.661Z,97489
2018-05-11T16:24:32.841Z,97488
2018-05-11T16:27:01.782Z,97485
2018-05-11T16:29:30.716Z,97491
2018-05-11T16:31:58.887Z,97489
2018-05-11T16:34:27.059Z,97495
2018-05-11T16:36:55.407Z,97487
2018-05-11T16:39:24.340Z,97493
2018-05-11T16:41:52.523Z,97487
2018-05-11T16:44:20.725Z,97488
2018-05-11T16:46:48.931Z,97489
2018-05-11T16:49:17.093Z,97487
2018-05-11T16:51:46.067Z,97491
2018-05-11T16:54:14.239Z,97495
2018-05-11T16:56:42.408Z,97492
2018-05-11T16:59:10.650Z,97495
2018-05-11T17:01:38.836Z,97493
2018-05-11T17:04:07.005Z,97495
2018-05-11T17:06:35.186Z,97494
2018-05-11T17:09:03.373Z,97496
2018-05-11T17:11:31.546Z,97502
2018-05-11T17:13:59.757Z,97501
2018-05-11T17:16:28.724Z,97500
2018-05-11T17:18:56.889Z,97500
2018-05-11T17:21:25.054Z,97502
2018-05-11T17:23:54.001Z,97498
2018-05-11T17:26:22.949Z,97499
2018-05-11T17:28:51.155Z,97496
2018-05-11T17:31:20.102Z,97493
2018-05-11T17:33:48.278Z,97501
2018-05-11T17:36:16.455Z,97495
2018-05-11T17:38:44.629Z,97501
2018-05-11T17:41:12.804Z,97501
2018-05-11T17:43:40.967Z,97503
2018-05-11T17:46:09.152Z,97505
2018-05-11T17:48:37.329Z,97507
2018-05-11T17:51:05.542Z,97506
2018-05-11T17:53:34.508Z,97504
2018-05-11T17:56:02.688Z,97509
2018-05-11T17:58:30.855Z,97511
2018-05-11T18:00:59.020Z,97509
2018-05-11T18:03:27.192Z,97506
2018-05-11T18:05:55.357Z,97507
2018-05-11T18:08:23.564Z,97507
2018-05-11T18:10:51.753Z,97507
2018-05-11T18:13:20.696Z,97511
2018-05-11T18:15:48.878Z,97505
2018-05-11T18:18:17.066Z,97506
2018-05-11T18:20:45.260Z,97503
2018-05-11T18:23:13.442Z,97503
2018-05-11T18:25:41.635Z,97504
2018-05-11T18:28:10.577Z,97508
2018-05-11T18:30:38.761Z,97512
2018-05-11T18:33:06.934Z,97516
2018-05-11T18:35:35.105Z,97515
2018-05-11T18:38:03.310Z,97519
2018-05-11T18:40:32.257Z,97516
2018-05-11T18:43:00.431Z,97518
2018-05-11T18:45:28.629Z,97519
2018-05-11T18:47:56.797Z,97519
2018-05-11T18:50:24.977Z,97518
2018-05-11T18:52:53.987Z,97532
2018-05-11T18:55:22.175Z,97529
2018-05-11T18:57:51.364Z,97533
2018-05-11T19:00:20.334Z,97536
2018-05-11T19:02:48.515Z,97532
2018-05-11T19:05:16.687Z,97537
2018-05-11T19:07:44.860Z,97539
2018-05-11T19:10:13.037Z,97542
2018-05-11T19:12:41.229Z,97543
2018-05-11T19:15:09.411Z,97554
2018-05-11T19:17:38.376Z,97557
2018-05-11T19:20:06.545Z,97563
2018-05-11T19:22:34.723Z,97561
2018-05-11T19:25:02.926Z,97561
2018-05-11T19:27:31.874Z,97553
2018-05-11T19:30:00.045Z,97559
2018-05-11T19:32:28.272Z,97557
2018-05-11T19:34:57.218Z,97560
2018-05-11T19:37:25.391Z,97564
2018-05-11T19:39:53.566Z,97567
2018-05-11T19:42:21.749Z,97568
2018-05-11T19:44:49.936Z,97572
2018-05-11T19:47:18.145Z,97573
2018-05-11T19:49:47.100Z,97571
2018-05-11T19:52:15.274Z,97571
2018-05-11T19:54:43.445Z,97571
2018-05-11T19:57:11.689Z,97575
2018-05-11T19:59:40.606Z,97578
2018-05-11T20:02:08.784Z,97578
2018-05-11T20:04:37.012Z,97582
2018-05-11T20:07:05.205Z,97585
2018-05-11T20:09:33.375Z,97592
2018-05-11T20:12:01.563Z,97593
2018-05-11T20:14:29.757Z,97592
2018-05-11T20:16:57.930Z,97591
2018-05-11T20:19:26.141Z,97595
2018-05-11T20:21:54.349Z,97594
2018-05-11T20:24:22.529Z,97596
2018-05-11T20:26:50.738Z,97597
2018-05-11T20:29:18.953Z,97602
2018-05-11T20:31:47.897Z,97600
2018-05-11T20:34:16.074Z,97600
2018-05-11T20:36:44.248Z,97598
2018-05-11T20:39:12.424Z,97601
2018-05-11T20:41:40.694Z,97601
2018-05-11T20:44:09.600Z,97597
2018-05-11T20:46:37.807Z,97607
2018-05-11T20:49:06.759Z,97605
2018-05-11T20:51:34.941Z,97608
2018-05-11T20:54:03.119Z,97611
2018-05-11T20:56:31.297Z,97611
2018-05-11T20:58:59.485Z,97615
2018-05-11T21:01:27.683Z,97612
2018-05-11T21:03:56.622Z,97613
2018-05-11T21:06:24.834Z,97612
2018-05-11T21:08:53.013Z,97605
2018-05-11T21:11:21.957Z,97602
2018-05-11T21:13:50.175Z,97603
2018-05-11T21:16:18.378Z,97599
2018-05-11T21:18:47.324Z,97598
2018-05-11T21:21:16.286Z,97606
2018-05-11T21:23:44.481Z,97601
2018-05-11T21:26:12.661Z,97602
2018-05-11T21:28:40.842Z,97602
2018-05-11T21:31:09.012Z,97599
2018-05-11T21:33:37.314Z,97599
2018-05-11T21:36:06.171Z,97595
2018-05-11T21:38:34.361Z,97601
2018-05-11T21:41:02.608Z,97592
2018-05-11T21:43:31.501Z,97597
2018-05-11T21:45:59.694Z,97594
2018-05-11T21:48:27.896Z,97597
2018-05-11T21:50:56.091Z,97596
2018-05-11T21:53:24.280Z,97597
2018-05-11T21:55:52.467Z,97605
2018-05-11T21:58:20.641Z,97601
2018-05-11T22:00:48.823Z,97600
2018-05-11T22:03:17.001Z,97596
2018-05-11T22:05:45.183Z,97599
2018-05-11T22:08:13.356Z,97601
2018-05-11T22:10:41.550Z,97597
2018-05-11T22:13:09.736Z,97596
2018-05-11T22:15:37.933Z,97596
2018-05-11T22:18:06.877Z,97595
2018-05-11T22:20:35.054Z,97596
2018-05-11T22:23:03.229Z,97601
2018-05-11T22:25:31.405Z,97601
2018-05-11T22:27:59.596Z,97595
2018-05-11T22:30:27.775Z,97595
2018-05-11T22:32:55.986Z,97588
2018-05-11T22:35:24.184Z,97592
2018-05-11T22:37:52.375Z,97589
2018-05-11T22:40:20.554Z,97596
2018-05-11T22:42:48.732Z,97591
2018-05-11T22:45:16.916Z,97591
2018-05-11T22:47:45.108Z,97593
2018-05-11T22:50:13.287Z,97585
2018-05-11T22:52:42.233Z,97590
2018-05-11T22:55:11.193Z,97588
2018-05-11T22:57:39.366Z,97585
2018-05-11T23:00:08.390Z,97582
2018-05-11T23:02:36.571Z,97580
2018-05-11T23:05:04.749Z,97577
2018-05-11T23:07:32.921Z,97577
2018-05-11T23:10:01.101Z,97576
2018-05-11T23:12:29.289Z,97571
2018-05-11T23:14:57.480Z,97569
2018-05-11T23:17:25.655Z,97571
2018-05-11T23:19:53.829Z,97567
2018-05-11T23:22:22.007Z,97571
2018-05-11T23:24:51.055Z,97565
2018-05-11T23:27:19.162Z,97560
2018-05-11T23:29:47.344Z,97561
2018-05-11T23:32:15.528Z,97554
2018-05-11T23:34:44.478Z,97553
2018-05-11T23:37:12.657Z,97550
2018-05-11T23:39:40.919Z,97550
2018-05-11T23:42:09.092Z,97549
2018-05-11T23:44:37.268Z,97551
2018-05-11T23:47:05.444Z,97554
2018-05-11T23:49:33.621Z,97552
2018-05-11T23:52:01.797Z,97551
2018-05-11T23:54:29.981Z,97551
2018-05-11T23:56:58.153Z,97554
2018-05-11T23:59:26.337Z,97553
